עמוד ראשי
METAR-TAF:

METAR-TAF

שדות תעופה :

Al-Hasa, ערב הסעודית

קו רוחב: 25-18N, קו אורך: 049-29E, גובה: 179מטר

תצפית מזג אוויר נוכחית

הדו"ח נערך לפני 20דקות, בשעה 02:00 UTC
רוח 3קשר מכיוון מערב
טמפרטורת 33 צלסיוס
לחות 16%
לחץ 998 hPa
ראות 10 קילומטר או יותר
ללא עננים שבסיסם נמוך מ 5000 רגל או קומולונימבוס

METAR: OEAH 220200Z 28003KT CAVOK 33/04 Q0998 NOSIG

זמן: 05:20 (02:20 UTC)

תחזית

הדו"ח נערך לפני 4 שעות ו 20דקות, בשעה 22:00 UTC
תחזית בתוקף מ 22 ב 00 UTC עד 23 ב 06 UTC
רוח 8קשר מכיוון מערב
ראות 10 קילומטר או יותר
ללא עננים שבסיסם נמוך מ 5000 רגל או קומולונימבוס
יעשה מ
22 ב 09 UTC עד 22 ב 11 UTC
רוח 12קשר מכיוון צפון
יעשה מ
22 ב 18 UTC עד 22 ב 20 UTC
רוח 3קשר עם כיוונים משתנים

TAF: OEAH 212200Z 2200/2306 27008KT CAVOK BECMG 2209/2211 35012KT BECMG 2218/2220 VRB03KT

תצפיות ותחזיות מזג אוויר לגבי יותר מ- 4,000 שדות תעופה ברחבי העולם. דוחות METAR ו- TAF.

התחנות הזמינות מסומנות בנקודות צהובות ואדומות על גבי המפה.

העבר את העכבר לנקודה הצבעונית על מנת לראות את שם התחנה.

לאחר מכן, לחץ כדי לראות את תוכן ואת תחזיות מזג האוויר.

כדי לשנות את המפה: לחץ על הכפתורים הירוקים עם הפלוס השחור כדי להתקרב; על הכפתור הירוק עם המקף כדי להתרחק; או בחיצים הירוקים למפות סמוכות.


METAR-TAF: